createdAt,value
2022-12-08T00:03:52.870Z,98890.25
2022-12-08T00:08:58.363Z,98898.45
2022-12-08T00:14:01.306Z,98892.48
2022-12-08T00:19:04.035Z,98891.08
2022-12-08T00:24:07.198Z,98893.68
2022-12-08T00:29:15.883Z,98895.46
2022-12-08T00:34:20.245Z,98900.29
2022-12-08T00:39:22.726Z,98908.70
2022-12-08T00:44:25.276Z,98923.83
2022-12-08T00:49:27.775Z,98938.23
2022-12-08T00:54:30.333Z,98946.77
2022-12-08T00:59:32.865Z,98948.77
2022-12-08T01:04:35.332Z,98955.42
2022-12-08T01:09:37.991Z,98950.38
2022-12-08T01:14:40.512Z,98953.78
2022-12-08T01:19:43.160Z,98953.08
2022-12-08T01:24:45.703Z,98960.63
2022-12-08T01:29:48.186Z,98967.52
2022-12-08T01:34:50.663Z,98970.21
2022-12-08T01:39:53.193Z,98968.70
2022-12-08T01:44:59.513Z,98974.86
2022-12-08T01:50:03.159Z,98972.90
2022-12-08T01:55:14.901Z,98979.74
2022-12-08T02:00:20.504Z,98983.89
2022-12-08T02:05:27.016Z,98984.05
2022-12-08T02:10:32.833Z,98986.77
2022-12-08T02:15:44.090Z,98985.73
2022-12-08T02:20:55.904Z,98985.73
2022-12-08T02:26:01.333Z,98981.33
2022-12-08T02:31:21.683Z,98984.36
2022-12-08T02:36:34.973Z,98986.77
2022-12-08T02:41:46.421Z,98989.92
2022-12-08T02:46:54.219Z,98998.61
2022-12-08T02:52:02.583Z,99003.93
2022-12-08T02:57:24.423Z,99005.68
2022-12-08T03:02:32.947Z,99011.09
2022-12-08T03:07:42.476Z,99019.02
2022-12-08T03:12:52.193Z,99017.89
2022-12-08T03:17:57.611Z,99020.97
2022-12-08T03:23:05.260Z,99022.95
2022-12-08T03:28:08.099Z,99028.48
2022-12-08T03:33:18.595Z,99032.30
2022-12-08T03:38:21.703Z,99037.85
2022-12-08T03:43:24.160Z,99046.11
2022-12-08T03:48:26.721Z,99053.79
2022-12-08T03:53:29.219Z,99055.48
2022-12-08T03:58:37.238Z,99063.88
2022-12-08T04:03:40.931Z,99061.99
2022-12-08T04:08:43.437Z,99064.69
2022-12-08T04:13:46.111Z,99067.15
2022-12-08T04:18:48.854Z,99067.04
2022-12-08T04:23:56.097Z,99068.59
2022-12-08T04:29:01.718Z,99074.27
2022-12-08T04:34:04.214Z,99077.23
2022-12-08T04:39:07.024Z,99084.84
2022-12-08T04:44:09.538Z,99087.66
2022-12-08T04:49:12.035Z,99090.70
2022-12-08T04:54:14.532Z,99095.98
2022-12-08T04:59:17.001Z,99096.30
2022-12-08T05:04:19.501Z,99103.77
2022-12-08T05:09:22.193Z,99111.27
2022-12-08T05:14:24.667Z,99104.65
2022-12-08T05:19:27.160Z,99110.08
2022-12-08T05:24:29.700Z,99115.05
2022-12-08T05:29:32.245Z,99118.50
2022-12-08T05:34:34.754Z,99119.34
2022-12-08T05:39:37.427Z,99120.48
2022-12-08T05:44:39.939Z,99122.55
2022-12-08T05:49:42.431Z,99127.52
2022-12-08T05:54:45.034Z,99137.62
2022-12-08T05:59:47.505Z,99135.39
2022-12-08T06:04:50.048Z,99140.20
2022-12-08T06:09:54.845Z,99147.23
2022-12-08T06:14:57.317Z,99155.84
2022-12-08T06:20:00.007Z,99158.96
2022-12-08T06:25:05.995Z,99161.56
2022-12-08T06:30:11.284Z,99172.05
2022-12-08T06:35:16.440Z,99175.15
2022-12-08T06:40:19.154Z,99186.16
2022-12-08T06:45:21.659Z,99188.27
2022-12-08T06:50:24.313Z,99191.22
2022-12-08T06:55:58.747Z,99193.81
2022-12-08T07:00:51.587Z,99202.38
2022-12-08T07:06:01.813Z,99214.00
2022-12-08T07:11:09.133Z,99218.48
2022-12-08T07:16:12.878Z,99229.58
2022-12-08T07:21:16.444Z,99231.59
2022-12-08T07:26:21.339Z,99240.08
2022-12-08T07:31:25.548Z,99242.75
2022-12-08T07:36:28.235Z,99248.36
2022-12-08T07:41:30.815Z,99259.11
2022-12-08T07:46:33.692Z,99265.90
2022-12-08T07:51:36.419Z,99275.80
2022-12-08T07:56:39.115Z,99276.95
2022-12-08T08:01:45.321Z,99280.28
2022-12-08T08:06:48.403Z,99281.65
2022-12-08T08:12:14.465Z,99278.38
2022-12-08T08:17:13.477Z,99278.06
2022-12-08T08:22:16.424Z,99280.66
2022-12-08T08:27:19.476Z,99287.15
2022-12-08T08:32:22.161Z,99293.91
2022-12-08T08:37:25.093Z,99301.67
2022-12-08T08:42:27.827Z,99307.45
2022-12-08T08:47:30.373Z,99314.27
2022-12-08T08:52:33.100Z,99318.14
2022-12-08T08:57:36.165Z,99319.83
2022-12-08T09:02:39.806Z,99325.84
2022-12-08T09:07:42.845Z,99320.23
2022-12-08T09:12:45.772Z,99322.14
2022-12-08T09:17:48.252Z,99330.39
2022-12-08T09:22:51.185Z,99330.98
2022-12-08T09:27:53.899Z,99334.76
2022-12-08T09:32:57.000Z,99338.23
2022-12-08T09:37:59.724Z,99341.25
2022-12-08T09:43:06.381Z,99338.48
2022-12-08T09:48:15.969Z,99340.02
2022-12-08T09:53:27.371Z,99340.58
2022-12-08T09:58:45.620Z,99327.89
2022-12-08T10:03:49.356Z,99321.96
2022-12-08T10:09:03.273Z,99326.65
2022-12-08T10:14:16.292Z,99325.91
2022-12-08T10:19:22.637Z,99325.11
2022-12-08T10:24:34.509Z,99321.77
2022-12-08T10:29:37.105Z,99313.29
2022-12-08T10:35:03.675Z,99310.20
2022-12-08T10:40:08.447Z,99307.16
2022-12-08T10:45:20.144Z,99306.35
2022-12-08T10:50:33.695Z,99309.52
2022-12-08T10:55:43.503Z,99309.77
2022-12-08T11:00:46.255Z,99309.08
2022-12-08T11:05:49.503Z,99302.09
2022-12-08T11:10:54.511Z,99301.85
2022-12-08T11:15:57.707Z,99294.27
2022-12-08T11:21:13.612Z,99281.27
2022-12-08T11:26:23.883Z,99279.25
2022-12-08T11:31:33.574Z,99274.16
2022-12-08T11:36:38.070Z,99268.73
2022-12-08T11:41:44.697Z,99262.95
2022-12-08T11:46:51.006Z,99254.38
2022-12-08T11:52:01.460Z,99256.30
2022-12-08T11:57:08.533Z,99252.77
2022-12-08T12:02:15.090Z,99249.77
2022-12-08T12:07:29.024Z,99244.08
2022-12-08T12:12:39.454Z,99240.09
2022-12-08T12:17:48.260Z,99230.11
2022-12-08T12:22:57.783Z,99226.34
2022-12-08T12:28:04.489Z,99221.27
2022-12-08T12:33:11.822Z,99222.09
2022-12-08T12:38:24.527Z,99206.25
2022-12-08T12:43:32.772Z,99198.61
2022-12-08T12:48:35.285Z,99191.48
2022-12-08T12:53:37.724Z,99189.23
2022-12-08T12:58:42.396Z,99186.52
2022-12-08T13:03:51.279Z,99183.06
2022-12-08T13:08:56.164Z,99179.29
2022-12-08T13:14:05.383Z,99178.71
2022-12-08T13:19:14.439Z,99173.63
2022-12-08T13:24:22.820Z,99164.20
2022-12-08T13:29:26.510Z,99163.45
2022-12-08T13:34:37.264Z,99158.85
2022-12-08T13:39:39.675Z,99157.02
2022-12-08T14:01:08.986Z,99157.15
2022-12-08T14:06:17.556Z,99161.18
2022-12-08T14:11:33.587Z,99154.69
2022-12-08T14:16:39.755Z,99157.17
2022-12-08T14:21:45.667Z,99157.63
2022-12-08T14:26:52.914Z,99151.77
2022-12-08T14:31:55.367Z,99152.36
2022-12-08T14:36:58.549Z,99149.48
2022-12-08T14:42:01.121Z,99147.11
2022-12-08T14:47:09.451Z,99149.11
2022-12-08T14:52:12.404Z,99147.84
2022-12-08T14:57:15.520Z,99148.56
2022-12-08T15:02:21.664Z,99146.54
2022-12-08T15:07:26.140Z,99149.73
2022-12-08T15:12:31.782Z,99148.20
2022-12-08T15:17:35.356Z,99155.06
2022-12-08T15:22:38.772Z,99154.98
2022-12-08T15:27:50.246Z,99160.56
2022-12-08T15:32:54.106Z,99156.93
2022-12-08T15:37:56.685Z,99165.17
2022-12-08T15:42:59.191Z,99161.89
2022-12-08T15:48:01.718Z,99160.29
2022-12-08T15:53:04.216Z,99156.88
2022-12-08T16:09:11.241Z,99159.02
2022-12-08T16:15:23.029Z,99163.63
2022-12-08T16:19:38.472Z,99160.44
2022-12-08T16:24:41.042Z,99156.17
2022-12-08T16:29:47.033Z,99161.07
2022-12-08T16:34:50.513Z,99160.33
2022-12-08T16:39:55.092Z,99162.53
2022-12-08T16:44:57.666Z,99159.93
2022-12-08T16:50:00.204Z,99161.03
2022-12-08T16:55:03.350Z,99160.27
2022-12-08T17:00:08.855Z,99150.83
2022-12-08T17:05:25.504Z,99143.25
2022-12-08T17:10:30.278Z,99148.06
2022-12-08T17:15:35.278Z,99154.92
2022-12-08T17:20:39.183Z,99148.77
2022-12-08T17:25:41.645Z,99153.27
2022-12-08T17:30:44.211Z,99159.80
2022-12-08T17:35:48.761Z,99161.52
2022-12-08T17:40:56.957Z,99161.20
2022-12-08T17:46:01.138Z,99161.52
2022-12-08T17:51:03.798Z,99165.13
2022-12-08T17:56:14.580Z,99157.36
2022-12-08T18:01:17.272Z,99154.92
2022-12-08T18:06:20.205Z,99148.03
2022-12-08T18:11:23.859Z,99138.06
2022-12-08T18:16:27.767Z,99141.05
2022-12-08T18:21:30.418Z,99136.92
2022-12-08T18:26:33.552Z,99134.86
2022-12-08T18:31:36.016Z,99126.20
2022-12-08T18:36:38.599Z,99127.66
2022-12-08T18:41:41.065Z,99116.57
2022-12-08T18:46:43.556Z,99109.19
2022-12-08T18:51:48.896Z,99101.53
2022-12-08T18:56:51.385Z,99108.10
2022-12-08T19:01:53.923Z,99113.40
2022-12-08T19:06:57.344Z,99114.56
2022-12-08T19:11:59.850Z,99112.80
2022-12-08T19:17:02.396Z,99105.84
2022-12-08T19:22:04.949Z,99104.55
2022-12-08T19:27:07.545Z,99106.55
2022-12-08T19:32:10.027Z,99103.98
2022-12-08T19:37:12.923Z,99108.83
2022-12-08T19:42:23.195Z,99095.88
2022-12-08T19:47:27.553Z,99094.24
2022-12-08T19:52:30.041Z,99096.39
2022-12-08T19:57:32.546Z,99088.66
2022-12-08T20:02:36.344Z,99091.48
2022-12-08T20:07:39.943Z,99097.94
2022-12-08T20:12:42.527Z,99093.40
2022-12-08T20:17:45.079Z,99089.61
2022-12-08T20:22:49.787Z,99094.21
2022-12-08T20:27:52.287Z,99094.77
2022-12-08T20:32:54.767Z,99098.95
2022-12-08T20:37:57.296Z,99098.73
2022-12-08T20:43:00.130Z,99106.41
2022-12-08T20:48:02.674Z,99114.80
2022-12-08T20:53:05.398Z,99120.27
2022-12-08T20:58:08.741Z,99124.49
2022-12-08T21:03:13.164Z,99121.56
2022-12-08T21:08:16.110Z,99121.04
2022-12-08T21:13:18.877Z,99128.75
2022-12-08T21:18:21.850Z,99133.26
2022-12-08T21:23:24.408Z,99139.70
2022-12-08T21:28:27.391Z,99144.62
2022-12-08T21:33:30.051Z,99145.73
2022-12-08T21:38:32.775Z,99155.20
2022-12-08T21:43:35.791Z,99157.80
2022-12-08T21:48:38.316Z,99160.59
2022-12-08T21:53:41.037Z,99156.93
2022-12-08T21:58:43.670Z,99160.30
2022-12-08T22:03:46.399Z,99159.69
2022-12-08T22:08:49.196Z,99163.52
2022-12-08T22:13:51.796Z,99164.88
2022-12-08T22:18:54.438Z,99172.12
2022-12-08T22:23:58.413Z,99169.30
2022-12-08T22:29:01.697Z,99172.39
2022-12-08T22:34:04.303Z,99171.36
2022-12-08T22:39:06.803Z,99170.83
2022-12-08T22:44:09.544Z,99173.72
2022-12-08T22:49:12.106Z,99171.13
2022-12-08T22:54:14.647Z,99175.20
2022-12-08T22:59:17.127Z,99181.52
2022-12-08T23:04:20.147Z,99183.77
2022-12-08T23:09:23.613Z,99189.61
2022-12-08T23:14:26.140Z,99187.55
2022-12-08T23:19:28.743Z,99186.30
2022-12-08T23:24:33.430Z,99184.95
2022-12-08T23:29:37.107Z,99184.42
2022-12-08T23:34:39.694Z,99176.84
2022-12-08T23:39:42.226Z,99186.79
2022-12-08T23:44:44.645Z,99190.33
2022-12-08T23:49:47.063Z,99195.34
2022-12-08T23:54:50.343Z,99189.92
2022-12-08T23:59:53.004Z,99201.88
